Kearns, UT

10:16 PM MDT en Septiembre 01, 2014 (GMT -0600)
Kearns | Change Station
CLOSE
Current Station
Estación meteorológica personal
Location: Kearns, UT
Altura: 4613 ft
Estaciones meteorológicas cercanas

Alt 4613 ft 40.65 °N, 111.98 °W | Updated 12 seconds ago

Despejado
Despejado
61.5 ° F
Sensación térmica 61.5 ° F
N
0.0
Viento Variable Viento desde OSO
Gusts 0.0 mph

Hoy
Alta -- | Baja -- ° F
--% Posibilidad de precipitaciones
Ayer
Alta -- | Baja -- ° F
Precip. -- pul
6:55 AM 7:59 PM
Creciente, 47% visible
Presión 29.94 pul
Visibilidad 10.0 Millas
Nubes Despejado
Punto de rocío 41 ° F
Humedad 47%
Precipitaciones 0.00 pul
Espesor de la nieve 0 in , 0 in
UV 0 de una escala de 12
Polen 8.00 de una escala de 12
Ozono Buena
PM2.5 Buena
Flu Activity No disponible.
METAR KSLC 020353Z 17005KT 10SM CLR 19/02 A3005 RMK AO2 SLP136 T01890022

More Conditions Fewer Conditions

Presión 29.94 pul
Visibilidad 10.0 Millas
Nubes Despejado
Punto de rocío 41 ° F
Humedad 47%
Precipitaciones 0.00 pul
Espesor de la nieve 0 in , 0 in
UV 0 de una escala de 12
Polen 8.00 de una escala de 12
Ozono Buena
PM2.5 Buena
Flu Activity No disponible.
METAR KSLC 020353Z 17005KT 10SM CLR 19/02 A3005 RMK AO2 SLP136 T01890022

More Conditions Fewer Conditions

10-Day Weather Forecast

Almanac

Astronomía

Sep. 01, 2014 Salida Puesta
Hora real 6:55 AM MDT 7:59 PM MDT
Crepúsculo civil 6:27 AM MDT 8:27 PM MDT
Crepúsculo náutico 5:53 AM MDT 9:01 PM MDT
Crepúsculo astronómico 5:18 AM MDT 9:36 PM MDT
Luna 1:46 PM MDT (9/1) Sin puesta de luna
Horas de luz 14h 00m
Horas de luz
13h 04m
Tomorrow will be 2m 35s shorter.
Creciente, 47% of the Moon is Illuminated
Sep 2
Creciente
Sep 2
Cuarto creciente
Sep 8
Luna llena
Sep 15
Cuarto menguante
Sep 24
Nueva

Extremos de hoy

Máximos del estado Bajos del estado

Community

WunderPhotos

Upload Photos

1,749,560 ¡fotos cargadas!

WunderBlogs® & News

Nearby

Calidad del aire

  Calidad del aire Índice AQ Contaminante
Ayer Buena
PM2.5
Ayer Buena
OZONE
Real Buena
OZONE
Real Buena
PM2.5
Lunes Moderada
OZONE
Martes Moderada
OZONE
Miércoles Moderada
OZONE

Grosos de nieve

Estación Profundido Altura
Dry Fork 0 in 7160 ft
Rocky Basin-Settlement 0 in 8900 ft
Hardscrabble 0 in 7250 ft
Cascade Mountain 1 in 7768 ft
Ben Lomond Peak 0 in 8000 ft

Actividad de terremotos

Ciudad Distance Mag. Tiempo y dato
No hay informes recientes de la actividad sísmica.
Magnitud mínima muestra es 2,5.

Temperaturas de aguas costeras

Lugar Temperatura
Sin partes meteorológicos de las estaciones

Estaciones meteorológicas cercanas